createdAt,value
2023-05-17T00:00:55.564Z,9.50
2023-05-17T00:03:22.210Z,9.50
2023-05-17T00:05:48.833Z,9.40
2023-05-17T00:08:15.557Z,9.40
2023-05-17T00:10:43.209Z,9.40
2023-05-17T00:13:09.834Z,9.40
2023-05-17T00:15:36.554Z,9.40
2023-05-17T00:18:03.365Z,9.40
2023-05-17T00:20:30.275Z,9.40
2023-05-17T00:22:56.935Z,9.40
2023-05-17T00:25:23.548Z,9.40
2023-05-17T00:27:50.187Z,9.30
2023-05-17T00:30:16.832Z,9.20
2023-05-17T00:32:45.477Z,9.30
2023-05-17T00:35:12.401Z,9.30
2023-05-17T00:37:39.054Z,9.30
2023-05-17T00:40:06.653Z,9.20
2023-05-17T00:42:33.302Z,9.20
2023-05-17T00:44:59.904Z,9.20
2023-05-17T00:47:26.573Z,9.10
2023-05-17T00:49:53.300Z,9.10
2023-05-17T00:52:19.955Z,9.10
2023-05-17T00:54:46.831Z,9.10
2023-05-17T00:57:14.194Z,9.10
2023-05-17T00:59:42.159Z,9.00
2023-05-17T01:02:09.440Z,8.90
2023-05-17T01:04:37.084Z,8.80
2023-05-17T01:07:03.872Z,8.80
2023-05-17T01:09:30.829Z,8.90
2023-05-17T01:12:07.885Z,8.90
2023-05-17T01:14:56.329Z,8.80
2023-05-17T01:17:33.246Z,8.90
2023-05-17T01:20:17.213Z,8.80
2023-05-17T01:22:48.569Z,8.70
2023-05-17T01:25:43.623Z,8.70
2023-05-17T01:28:11.633Z,8.70
2023-05-17T01:30:39.660Z,8.70
2023-05-17T01:33:07.581Z,8.70
2023-05-17T01:35:34.370Z,8.80
2023-05-17T01:38:01.017Z,8.80
2023-05-17T01:40:28.342Z,8.70
2023-05-17T01:43:01.413Z,8.80
2023-05-17T01:45:42.500Z,8.70
2023-05-17T01:48:28.568Z,8.70
2023-05-17T01:50:58.145Z,8.70
2023-05-17T01:53:37.769Z,8.70
2023-05-17T01:56:09.651Z,8.60
2023-05-17T01:58:47.388Z,8.60
2023-05-17T02:01:16.851Z,8.60
2023-05-17T02:03:43.654Z,8.60
2023-05-17T02:06:10.356Z,8.60
2023-05-17T02:08:37.001Z,8.70
2023-05-17T02:11:03.666Z,8.70
2023-05-17T02:13:30.261Z,8.70
2023-05-17T02:16:01.128Z,8.60
2023-05-17T02:18:28.170Z,8.70
2023-05-17T02:20:55.067Z,8.70
2023-05-17T02:23:21.792Z,8.60
2023-05-17T02:25:48.375Z,8.60
2023-05-17T02:28:14.968Z,8.50
2023-05-17T02:30:41.588Z,8.50
2023-05-17T02:33:08.950Z,8.60
2023-05-17T02:35:35.669Z,8.60
2023-05-17T02:38:02.482Z,8.60
2023-05-17T02:40:29.181Z,8.50
2023-05-17T02:42:55.822Z,8.40
2023-05-17T02:45:22.413Z,8.30
2023-05-17T02:47:49.147Z,8.30
2023-05-17T02:50:15.933Z,8.30
2023-05-17T02:52:42.604Z,8.30
2023-05-17T02:55:09.620Z,8.30
2023-05-17T02:57:36.228Z,8.30
2023-05-17T03:00:03.403Z,8.30
2023-05-17T03:02:30.047Z,8.30
2023-05-17T03:04:56.676Z,8.30
2023-05-17T03:07:23.340Z,8.40
2023-05-17T03:09:49.961Z,8.50
2023-05-17T03:12:16.551Z,8.50
2023-05-17T03:14:43.167Z,8.60
2023-05-17T03:17:09.772Z,8.60
2023-05-17T03:19:43.149Z,8.60
2023-05-17T03:22:09.874Z,8.60
2023-05-17T03:24:36.459Z,8.70
2023-05-17T03:27:03.104Z,8.70
2023-05-17T03:29:29.698Z,8.90
2023-05-17T03:31:56.294Z,9.00
2023-05-17T03:34:22.903Z,8.90
2023-05-17T03:36:49.521Z,8.90
2023-05-17T03:39:16.215Z,8.90
2023-05-17T03:41:42.889Z,8.90
2023-05-17T03:44:09.637Z,9.10
2023-05-17T03:46:36.360Z,9.10
2023-05-17T03:49:03.218Z,9.10
2023-05-17T03:51:29.885Z,9.20
2023-05-17T03:54:00.963Z,9.20
2023-05-17T03:56:27.659Z,9.30
2023-05-17T03:58:54.272Z,9.30
2023-05-17T04:01:21.046Z,9.30
2023-05-17T04:03:47.694Z,9.30
2023-05-17T04:06:20.650Z,9.30
2023-05-17T04:08:47.321Z,9.30
2023-05-17T04:11:14.118Z,9.30
2023-05-17T04:13:41.837Z,9.30
2023-05-17T04:16:11.330Z,9.40
2023-05-17T04:18:38.780Z,9.40
2023-05-17T04:21:06.250Z,9.50
2023-05-17T04:23:34.134Z,9.50
2023-05-17T04:26:00.859Z,9.50
2023-05-17T04:28:27.673Z,9.50
2023-05-17T04:30:55.831Z,9.50
2023-05-17T04:33:23.102Z,9.50
2023-05-17T04:35:50.965Z,9.40
2023-05-17T04:38:17.755Z,9.40
2023-05-17T04:40:46.276Z,9.40
2023-05-17T04:43:12.914Z,9.30
2023-05-17T04:45:39.612Z,9.40
2023-05-17T04:48:06.958Z,9.40
2023-05-17T04:50:33.800Z,9.40
2023-05-17T04:53:00.444Z,9.40
2023-05-17T04:55:27.489Z,9.50
2023-05-17T04:57:54.360Z,9.50
2023-05-17T05:00:22.895Z,9.50
2023-05-17T05:02:49.857Z,9.50
2023-05-17T05:05:16.618Z,9.60
2023-05-17T05:07:43.306Z,9.60
2023-05-17T05:10:10.304Z,9.60
2023-05-17T05:12:38.287Z,9.70
2023-05-17T05:15:08.081Z,9.70
2023-05-17T05:17:34.858Z,9.80
2023-05-17T05:20:01.640Z,9.90
2023-05-17T05:22:28.284Z,9.80
2023-05-17T05:24:55.889Z,9.80
2023-05-17T05:27:22.518Z,9.90
2023-05-17T05:29:49.158Z,9.90
2023-05-17T05:32:33.924Z,10.00
2023-05-17T05:35:00.959Z,10.00
2023-05-17T05:37:27.572Z,9.90
2023-05-17T05:39:54.266Z,9.90
2023-05-17T05:42:20.940Z,10.00
2023-05-17T05:44:50.452Z,10.10
2023-05-17T05:47:17.113Z,10.10
2023-05-17T05:49:43.740Z,10.20
2023-05-17T05:52:10.456Z,10.30
2023-05-17T05:54:37.109Z,10.40
2023-05-17T05:57:04.017Z,10.40
2023-05-17T05:59:30.617Z,10.40
2023-05-17T06:01:57.320Z,10.30
2023-05-17T06:04:36.359Z,10.30
2023-05-17T06:07:10.970Z,10.40
2023-05-17T06:09:37.612Z,10.30
2023-05-17T06:12:04.413Z,10.40
2023-05-17T06:14:31.138Z,10.30
2023-05-17T06:16:59.851Z,10.40
2023-05-17T06:19:26.556Z,10.50
2023-05-17T06:21:53.276Z,10.50
2023-05-17T06:24:19.885Z,10.40
2023-05-17T06:26:47.194Z,10.40
2023-05-17T06:29:13.842Z,10.50
2023-05-17T06:31:40.631Z,10.60
2023-05-17T06:34:07.425Z,10.60
2023-05-17T06:36:35.925Z,10.70
2023-05-17T06:39:04.172Z,10.80
2023-05-17T06:41:30.839Z,10.80
2023-05-17T06:43:57.478Z,10.80
2023-05-17T06:46:24.083Z,10.90
2023-05-17T06:48:51.499Z,10.80
2023-05-17T06:51:18.339Z,10.80
2023-05-17T06:53:45.084Z,11.00
2023-05-17T06:56:11.721Z,11.10
2023-05-17T06:58:38.364Z,11.10
2023-05-17T07:01:06.057Z,11.00
2023-05-17T07:03:32.788Z,11.00
2023-05-17T07:06:00.699Z,11.00
2023-05-17T07:08:27.558Z,11.20
2023-05-17T07:10:54.228Z,11.30
2023-05-17T07:13:20.959Z,11.50
2023-05-17T07:15:47.664Z,11.60
2023-05-17T07:18:14.391Z,11.40
2023-05-17T07:20:41.104Z,11.30
2023-05-17T07:23:07.831Z,11.40
2023-05-17T07:25:38.423Z,11.80
2023-05-17T07:28:05.393Z,11.90
2023-05-17T07:30:32.010Z,11.80
2023-05-17T07:32:58.720Z,12.10
2023-05-17T07:35:27.564Z,12.20
2023-05-17T07:37:54.368Z,12.30
2023-05-17T07:40:21.962Z,12.30
2023-05-17T07:42:48.723Z,12.60
2023-05-17T07:45:15.960Z,12.70
2023-05-17T07:47:42.724Z,13.00
2023-05-17T07:50:09.862Z,13.90
2023-05-17T07:52:36.592Z,14.00
2023-05-17T07:55:05.730Z,13.80
2023-05-17T07:57:32.411Z,13.80
2023-05-17T08:02:28.827Z,12.90
2023-05-17T08:04:55.525Z,12.70
2023-05-17T08:07:22.136Z,12.80
2023-05-17T08:09:48.808Z,13.00
2023-05-17T08:12:15.604Z,13.10
2023-05-17T08:14:42.250Z,13.00
2023-05-17T08:17:08.886Z,13.10
2023-05-17T08:19:38.170Z,13.30
2023-05-17T08:22:08.049Z,14.80
2023-05-17T08:24:35.090Z,14.80
2023-05-17T08:27:02.141Z,14.30
2023-05-17T08:29:28.782Z,14.10
2023-05-17T08:31:55.862Z,15.40
2023-05-17T08:34:22.818Z,17.10
2023-05-17T08:36:49.524Z,16.00
2023-05-17T08:41:43.389Z,14.40
2023-05-17T08:44:11.228Z,14.30
2023-05-17T08:46:39.868Z,15.50
2023-05-17T08:49:12.861Z,18.20
2023-05-17T08:51:40.894Z,18.10
2023-05-17T08:56:39.376Z,19.80
2023-05-17T08:59:08.408Z,20.80
2023-05-17T09:01:35.406Z,22.60
2023-05-17T09:04:02.574Z,22.60
2023-05-17T09:06:31.787Z,23.10
2023-05-17T09:09:01.401Z,23.20
2023-05-17T09:11:35.282Z,20.90
2023-05-17T09:14:04.680Z,18.20
2023-05-17T09:16:33.497Z,17.10
2023-05-17T09:19:01.185Z,16.40
2023-05-17T09:21:30.867Z,16.60
2023-05-17T09:24:07.416Z,16.50
2023-05-17T09:26:42.549Z,16.70
2023-05-17T09:29:14.185Z,18.80
2023-05-17T09:31:41.816Z,18.70
2023-05-17T09:34:09.160Z,20.30
2023-05-17T09:36:37.727Z,20.50
2023-05-17T09:39:06.177Z,19.50
2023-05-17T09:41:40.267Z,17.80
2023-05-17T09:44:09.766Z,16.70
2023-05-17T09:46:38.792Z,17.40
2023-05-17T09:49:06.939Z,20.20
2023-05-17T09:51:35.370Z,19.40
2023-05-17T09:54:02.681Z,19.40
2023-05-17T09:56:34.990Z,17.00
2023-05-17T09:59:02.223Z,16.90
2023-05-17T10:01:30.857Z,17.80
2023-05-17T10:04:04.655Z,19.10
2023-05-17T10:06:44.523Z,20.30
2023-05-17T10:09:15.818Z,20.30
2023-05-17T10:11:47.048Z,20.20
2023-05-17T10:14:23.486Z,20.20
2023-05-17T10:16:52.041Z,22.40
2023-05-17T10:19:21.124Z,22.50
2023-05-17T10:21:53.089Z,25.00
2023-05-17T10:24:21.378Z,25.50
2023-05-17T10:26:50.412Z,24.60
2023-05-17T10:29:17.637Z,24.70
2023-05-17T10:31:46.686Z,25.30
2023-05-17T10:34:16.829Z,24.30
2023-05-17T10:36:47.177Z,24.40
2023-05-17T10:39:13.904Z,25.30
2023-05-17T10:41:46.337Z,25.30
2023-05-17T10:44:17.566Z,26.00
2023-05-17T10:46:57.567Z,26.50
2023-05-17T10:49:31.690Z,25.80
2023-05-17T10:52:18.242Z,26.70
2023-05-17T10:54:48.454Z,24.30
2023-05-17T10:57:20.308Z,24.40
2023-05-17T11:00:00.331Z,25.40
2023-05-17T11:02:28.086Z,25.40
2023-05-17T11:05:00.294Z,26.40
2023-05-17T11:07:31.484Z,23.80
2023-05-17T11:10:06.097Z,24.70
2023-05-17T11:12:43.610Z,24.40
2023-05-17T11:15:16.026Z,25.70
2023-05-17T11:17:53.271Z,26.90
2023-05-17T11:20:26.289Z,25.90
2023-05-17T11:22:59.976Z,24.00
2023-05-17T11:25:32.462Z,21.50
2023-05-17T11:30:30.817Z,19.10
2023-05-17T11:33:01.481Z,23.60
2023-05-17T11:35:32.454Z,26.60
2023-05-17T11:38:20.215Z,26.60
2023-05-17T11:40:48.942Z,25.70
2023-05-17T11:43:17.610Z,24.90
2023-05-17T11:45:46.194Z,21.80
2023-05-17T11:48:13.689Z,21.60
2023-05-17T11:50:42.299Z,20.10
2023-05-17T11:53:10.061Z,20.80
2023-05-17T11:55:41.606Z,22.40
2023-05-17T11:58:10.726Z,23.20
2023-05-17T12:00:41.993Z,23.80
2023-05-17T12:03:18.854Z,24.20
2023-05-17T12:05:48.331Z,25.10
2023-05-17T12:08:15.915Z,24.00
2023-05-17T12:10:50.070Z,24.30
2023-05-17T12:13:16.821Z,24.30
2023-05-17T12:16:05.725Z,24.50
2023-05-17T12:18:38.995Z,24.00
2023-05-17T12:21:06.267Z,24.00
2023-05-17T12:23:34.211Z,24.40
2023-05-17T12:26:08.411Z,24.10
2023-05-17T12:28:35.597Z,23.50
2023-05-17T12:31:03.260Z,23.80
2023-05-17T12:33:35.322Z,23.30
2023-05-17T12:36:02.835Z,23.60
2023-05-17T12:38:32.087Z,22.50
2023-05-17T12:41:03.888Z,21.20
2023-05-17T12:43:33.996Z,21.00
2023-05-17T12:46:10.016Z,21.40
2023-05-17T12:48:38.015Z,21.40
2023-05-17T12:51:07.976Z,21.90
2023-05-17T12:53:42.398Z,20.30
2023-05-17T12:56:15.368Z,19.90
2023-05-17T12:58:42.085Z,20.20
2023-05-17T13:01:13.652Z,21.90
2023-05-17T13:03:42.750Z,22.10
2023-05-17T13:06:10.639Z,22.00
2023-05-17T13:08:37.668Z,21.80
2023-05-17T13:11:14.720Z,21.80
2023-05-17T13:13:41.772Z,21.80
2023-05-17T13:16:08.699Z,21.90
2023-05-17T13:18:55.439Z,22.40
2023-05-17T13:21:23.046Z,21.80
2023-05-17T13:23:50.665Z,20.90
2023-05-17T13:26:18.714Z,20.30
2023-05-17T13:28:45.951Z,20.70
2023-05-17T13:31:12.675Z,21.30
2023-05-17T13:33:39.455Z,21.90
2023-05-17T13:36:06.492Z,22.00
2023-05-17T13:38:33.139Z,21.40
2023-05-17T13:40:59.813Z,21.10
2023-05-17T13:43:26.547Z,20.40
2023-05-17T13:45:56.796Z,20.10
2023-05-17T13:48:23.953Z,19.80
2023-05-17T13:50:51.029Z,20.10
2023-05-17T13:53:18.028Z,20.20
2023-05-17T13:55:45.147Z,20.10
2023-05-17T13:58:11.817Z,19.90
2023-05-17T14:00:41.100Z,20.00
2023-05-17T14:03:08.154Z,20.20
2023-05-17T14:05:36.410Z,20.60
2023-05-17T14:08:04.006Z,21.30
2023-05-17T14:10:31.109Z,21.40
2023-05-17T14:12:57.911Z,21.70
2023-05-17T14:15:24.629Z,21.10
2023-05-17T14:17:51.311Z,20.20
2023-05-17T14:20:18.210Z,20.00
2023-05-17T14:22:45.841Z,19.30
2023-05-17T14:25:12.529Z,19.70
2023-05-17T14:27:39.197Z,20.30
2023-05-17T14:30:06.462Z,20.50
2023-05-17T14:32:33.193Z,20.60
2023-05-17T14:34:59.962Z,19.80
2023-05-17T14:37:26.699Z,19.60
2023-05-17T14:40:05.825Z,20.20
2023-05-17T14:42:33.691Z,20.30
2023-05-17T14:45:00.528Z,20.40
2023-05-17T14:47:27.362Z,20.20
2023-05-17T14:49:54.030Z,19.90
2023-05-17T14:52:20.681Z,19.40
2023-05-17T14:54:47.344Z,19.70
2023-05-17T14:57:14.037Z,20.10
2023-05-17T14:59:43.680Z,20.40
2023-05-17T15:02:11.652Z,20.10
2023-05-17T15:04:38.442Z,20.10
2023-05-17T15:07:05.976Z,19.60
2023-05-17T15:09:37.920Z,19.50
2023-05-17T15:12:04.966Z,19.70
2023-05-17T15:14:31.585Z,19.40
2023-05-17T15:16:58.461Z,19.20
2023-05-17T15:19:25.198Z,19.10
2023-05-17T15:21:51.956Z,19.20
2023-05-17T15:24:18.574Z,19.30
2023-05-17T15:26:45.220Z,19.00
2023-05-17T15:29:11.903Z,19.20
2023-05-17T15:31:38.560Z,18.80
2023-05-17T15:34:05.345Z,18.80
2023-05-17T15:36:32.421Z,18.80
2023-05-17T15:38:59.035Z,18.80
2023-05-17T15:41:29.923Z,18.90
2023-05-17T15:43:57.095Z,18.90
2023-05-17T15:46:23.793Z,19.10
2023-05-17T15:48:50.486Z,19.00
2023-05-17T15:51:17.165Z,18.80
2023-05-17T15:53:43.840Z,18.50
2023-05-17T15:56:11.331Z,18.50
2023-05-17T15:58:37.923Z,18.60
2023-05-17T16:01:05.555Z,18.50
2023-05-17T16:03:33.356Z,18.60
2023-05-17T16:06:00.172Z,18.70
2023-05-17T16:08:26.824Z,18.90
2023-05-17T16:10:53.524Z,19.00
2023-05-17T16:13:20.646Z,18.60
2023-05-17T16:15:47.316Z,18.40
2023-05-17T16:18:15.125Z,18.60
2023-05-17T16:20:42.605Z,18.60
2023-05-17T16:23:09.429Z,18.50
2023-05-17T16:25:36.525Z,18.90
2023-05-17T16:28:03.215Z,18.60
2023-05-17T16:30:29.929Z,18.20
2023-05-17T16:32:56.622Z,17.70
2023-05-17T16:35:23.277Z,17.40
2023-05-17T16:37:50.453Z,17.20
2023-05-17T16:40:17.077Z,16.90
2023-05-17T16:42:44.553Z,16.90
2023-05-17T16:45:11.506Z,16.90
2023-05-17T16:47:38.232Z,16.70
2023-05-17T16:50:06.423Z,16.50
2023-05-17T16:52:33.457Z,16.60
2023-05-17T16:55:03.270Z,16.30
2023-05-17T16:57:31.674Z,16.30
2023-05-17T17:00:00.593Z,16.50
2023-05-17T17:02:27.886Z,16.20
2023-05-17T17:04:54.896Z,16.00
2023-05-17T17:07:21.686Z,16.10
2023-05-17T17:09:48.269Z,16.40
2023-05-17T17:12:24.163Z,16.20
2023-05-17T17:14:51.738Z,16.00
2023-05-17T17:17:18.462Z,16.20
2023-05-17T17:19:45.236Z,16.20
2023-05-17T17:22:14.105Z,16.10
2023-05-17T17:24:40.856Z,16.10
2023-05-17T17:27:07.496Z,16.10
2023-05-17T17:29:34.200Z,15.90
2023-05-17T17:32:00.972Z,16.00
2023-05-17T17:34:27.698Z,15.70
2023-05-17T17:36:54.436Z,15.70
2023-05-17T17:39:21.243Z,15.70
2023-05-17T17:41:47.929Z,15.60
2023-05-17T17:44:15.373Z,15.40
2023-05-17T17:46:42.437Z,15.40
2023-05-17T17:49:09.110Z,15.30
2023-05-17T17:51:35.779Z,15.30
2023-05-17T17:54:04.886Z,15.00
2023-05-17T17:56:32.658Z,15.10
2023-05-17T17:58:59.736Z,15.20
2023-05-17T18:01:27.235Z,15.10
2023-05-17T18:03:54.108Z,15.10
2023-05-17T18:06:21.241Z,15.00
2023-05-17T18:08:48.083Z,14.90
2023-05-17T18:11:14.733Z,14.80
2023-05-17T18:13:41.469Z,14.80
2023-05-17T18:16:08.175Z,14.80
2023-05-17T18:18:36.801Z,14.70
2023-05-17T18:21:03.674Z,14.70
2023-05-17T18:23:30.307Z,14.50
2023-05-17T18:25:56.932Z,14.50
2023-05-17T18:28:33.781Z,14.50
2023-05-17T18:31:08.356Z,14.40
2023-05-17T18:33:35.037Z,14.40
2023-05-17T18:36:01.688Z,14.40
2023-05-17T18:38:28.306Z,14.40
2023-05-17T18:40:54.927Z,14.20
2023-05-17T18:43:21.534Z,14.00
2023-05-17T18:45:48.233Z,14.10
2023-05-17T18:48:14.856Z,14.10
2023-05-17T18:50:41.588Z,14.10
2023-05-17T18:53:08.452Z,14.00
2023-05-17T18:55:35.087Z,13.90
2023-05-17T18:58:01.706Z,13.80
2023-05-17T19:00:28.889Z,13.70
2023-05-17T19:02:55.758Z,13.50
2023-05-17T19:05:22.547Z,13.50
2023-05-17T19:07:49.286Z,13.40
2023-05-17T19:10:15.981Z,13.20
2023-05-17T19:12:45.473Z,13.20
2023-05-17T19:15:12.398Z,13.10
2023-05-17T19:17:39.185Z,13.10
2023-05-17T19:20:06.687Z,12.80
2023-05-17T19:22:35.388Z,12.90
2023-05-17T19:25:02.092Z,12.80
2023-05-17T19:27:28.666Z,12.70
2023-05-17T19:29:55.800Z,12.60
2023-05-17T19:32:22.819Z,12.70
2023-05-17T19:34:49.766Z,12.60
2023-05-17T19:37:16.558Z,12.50
2023-05-17T19:39:43.192Z,12.50
2023-05-17T19:42:09.854Z,12.40
2023-05-17T19:44:38.340Z,12.30
2023-05-17T19:47:05.291Z,12.20
2023-05-17T19:49:32.281Z,12.20
2023-05-17T19:52:01.003Z,12.10
2023-05-17T19:54:28.691Z,12.10
2023-05-17T19:56:55.998Z,12.10
2023-05-17T19:59:22.683Z,11.90
2023-05-17T20:01:50.849Z,11.80
2023-05-17T20:04:17.607Z,11.80
2023-05-17T20:06:44.562Z,11.80
2023-05-17T20:09:11.369Z,11.80
2023-05-17T20:11:38.302Z,11.80
2023-05-17T20:14:04.909Z,11.60
2023-05-17T20:16:31.667Z,11.50
2023-05-17T20:18:58.526Z,11.50
2023-05-17T20:21:26.351Z,11.50
2023-05-17T20:24:00.493Z,11.30
2023-05-17T20:26:31.337Z,11.30
2023-05-17T20:28:58.930Z,11.20
2023-05-17T20:31:26.165Z,11.10
2023-05-17T20:33:53.298Z,11.10
2023-05-17T20:36:20.051Z,11.10
2023-05-17T20:38:46.932Z,11.00
2023-05-17T20:41:14.768Z,11.00
2023-05-17T20:43:46.625Z,10.90
2023-05-17T20:46:13.766Z,10.80
2023-05-17T20:48:42.912Z,10.80
2023-05-17T20:51:10.228Z,10.80
2023-05-17T20:53:37.939Z,10.70
2023-05-17T20:56:05.442Z,10.70
2023-05-17T20:58:32.538Z,10.60
2023-05-17T21:01:00.926Z,10.60
2023-05-17T21:03:28.734Z,10.50
2023-05-17T21:05:55.988Z,10.50
2023-05-17T21:08:22.796Z,10.90
2023-05-17T21:10:50.020Z,10.40
2023-05-17T21:13:16.884Z,10.30
2023-05-17T21:15:43.774Z,10.30
2023-05-17T21:18:11.541Z,10.30
2023-05-17T21:20:39.048Z,10.30
2023-05-17T21:23:05.843Z,10.20
2023-05-17T21:25:33.906Z,10.10
2023-05-17T21:28:00.665Z,10.00
2023-05-17T21:30:27.460Z,10.00
2023-05-17T21:32:54.159Z,9.90
2023-05-17T21:35:20.868Z,9.80
2023-05-17T21:37:47.919Z,9.80
2023-05-17T21:40:14.725Z,9.80
2023-05-17T21:42:41.662Z,9.80
2023-05-17T21:45:08.906Z,9.80
2023-05-17T21:47:37.186Z,9.70
2023-05-17T21:50:04.447Z,9.60
2023-05-17T21:52:31.084Z,9.60
2023-05-17T21:54:57.781Z,9.70
2023-05-17T21:57:24.378Z,9.60
2023-05-17T21:59:51.364Z,9.60
2023-05-17T22:02:18.300Z,9.60
2023-05-17T22:04:45.040Z,6.50
2023-05-17T22:07:13.113Z,9.50
2023-05-17T22:09:39.940Z,9.50
2023-05-17T22:12:08.386Z,9.50
2023-05-17T22:14:36.276Z,9.50
2023-05-17T22:17:08.978Z,9.40
2023-05-17T22:19:40.497Z,9.40
2023-05-17T22:22:08.379Z,9.30
2023-05-17T22:24:35.737Z,9.10
2023-05-17T22:27:03.227Z,9.10
2023-05-17T22:29:29.872Z,9.10
2023-05-17T22:31:56.612Z,9.10
2023-05-17T22:34:23.345Z,9.00
2023-05-17T22:36:49.954Z,8.90
2023-05-17T22:39:16.595Z,9.00
2023-05-17T22:41:43.372Z,9.00
2023-05-17T22:44:09.982Z,9.00
2023-05-17T22:46:38.513Z,9.10
2023-05-17T22:49:05.181Z,9.10
2023-05-17T22:51:34.726Z,9.10
2023-05-17T22:54:02.394Z,9.00
2023-05-17T22:56:29.071Z,8.90
2023-05-17T22:58:55.709Z,8.90
2023-05-17T23:01:22.391Z,8.90
2023-05-17T23:03:49.052Z,8.90
2023-05-17T23:06:15.866Z,8.90
2023-05-17T23:08:42.475Z,8.80
2023-05-17T23:11:09.061Z,8.70
2023-05-17T23:13:36.337Z,8.70
2023-05-17T23:16:04.136Z,8.60
2023-05-17T23:18:30.937Z,8.60
2023-05-17T23:21:00.195Z,8.60
2023-05-17T23:23:29.949Z,8.60
2023-05-17T23:25:56.625Z,8.50
2023-05-17T23:28:26.577Z,8.50
2023-05-17T23:30:54.427Z,8.60
2023-05-17T23:33:21.069Z,8.60
2023-05-17T23:35:47.680Z,8.50
2023-05-17T23:38:14.403Z,8.50
2023-05-17T23:40:43.252Z,8.40
2023-05-17T23:43:10.217Z,8.40
2023-05-17T23:45:37.061Z,8.30
2023-05-17T23:48:03.841Z,8.30
2023-05-17T23:50:30.545Z,8.30
2023-05-17T23:52:57.209Z,8.20
2023-05-17T23:55:23.856Z,8.20
2023-05-17T23:57:50.499Z,8.20
